Time;durP1;ratioP1;P1;durP2;ratioP2;P2;SDS_P1;SDS_P2;PMS_P1;PMS_P2;Temp;Humidity;BMP_temperature;BMP_pressure;BME280_temperature;BME280_humidity;BME280_pressure;Samples;Min_cycle;Max_cycle;Signal;HPM_P1;HPM_P2
2021/11/02 00:02:17;;;;;;;32.50;18.90;;;;;;;6.75;60.75;97966.77;113338;1192;97622;-69
2021/11/02 00:04:45;;;;;;;35.30;19.80;;;;;;;6.79;60.86;97965.80;113252;1192;111746;-68
2021/11/02 00:07:16;;;;;;;35.10;19.20;;;;;;;6.83;61.10;97959.36;113470;1192;98240;-68
2021/11/02 00:09:48;;;;;;;34.70;19.10;;;;;;;6.86;61.03;97951.55;113565;1192;108374;-69
2021/11/02 00:12:16;;;;;;;34.80;19.80;;;;;;;6.83;61.26;97947.36;113590;1192;95043;-69
2021/11/02 00:14:46;;;;;;;36.60;19.70;;;;;;;6.77;61.17;97946.01;113687;1192;97547;-70
2021/11/02 00:17:27;;;;;;;39.70;19.40;;;;;;;6.74;61.30;97943.30;113564;1192;111680;-69
2021/11/02 00:20:00;;;;;;;35.80;20.80;;;;;;;6.70;61.07;97937.90;113694;1192;95363;-70
2021/11/02 00:22:32;;;;;;;36.20;20.50;;;;;;;6.69;61.37;97940.14;113662;1193;107536;-70
2021/11/02 00:25:06;;;;;;;35.80;20.40;;;;;;;6.69;61.19;97935.35;113508;1192;97746;-70
2021/11/02 00:27:39;;;;;;;37.30;20.70;;;;;;;6.69;61.27;97931.83;113626;1192;97575;-69
2021/11/02 00:30:14;;;;;;;35.50;19.70;;;;;;;6.68;61.30;97936.28;113556;1192;111123;-69
2021/11/02 00:32:45;;;;;;;34.30;19.40;;;;;;;6.69;61.55;97932.52;113311;1193;98820;-70
2021/11/02 00:35:15;;;;;;;36.60;19.90;;;;;;;6.71;61.53;97933.08;113667;1193;107459;-69
2021/11/02 00:37:45;;;;;;;36.80;20.20;;;;;;;6.72;61.77;97936.88;113667;1193;97697;-69
2021/11/02 00:40:17;;;;;;;33.40;20.40;;;;;;;6.71;61.91;97939.30;113622;1193;96885;-70
2021/11/02 00:42:56;;;;;;;32.60;17.60;;;;;;;6.68;61.86;97931.89;113588;1192;110812;-68
2021/11/02 00:45:37;;;;;;;35.10;19.50;;;;;;;6.64;62.11;97932.16;113537;1192;96143;-69
2021/11/02 00:48:13;;;;;;;37.80;20.80;;;;;;;6.58;62.28;97931.60;113598;1193;107436;-69
2021/11/02 00:50:44;;;;;;;36.60;20.20;;;;;;;6.53;62.22;97928.77;113707;1193;97505;-69
2021/11/02 00:53:12;;;;;;;38.60;21.00;;;;;;;6.48;61.93;97925.61;113681;1192;95116;-69
2021/11/02 00:55:40;;;;;;;33.20;18.60;;;;;;;6.45;61.94;97922.88;113663;1193;111170;-68
2021/11/02 00:58:08;;;;;;;36.90;21.00;;;;;;;6.44;61.80;97923.11;113642;1192;95642;-68
2021/11/02 01:00:39;;;;;;;44.50;24.60;;;;;;;6.43;61.72;97916.71;113595;1192;108365;-69
2021/11/02 01:03:10;;;;;;;37.90;21.40;;;;;;;6.42;61.70;97913.41;113411;1192;97547;-69
2021/11/02 01:05:38;;;;;;;45.10;26.60;;;;;;;6.41;61.39;97912.39;113296;1193;96142;-69
2021/11/02 01:08:09;;;;;;;38.10;21.20;;;;;;;6.39;61.47;97910.21;113380;1192;111115;-69
2021/11/02 01:10:37;;;;;;;44.20;24.40;;;;;;;6.36;61.38;97905.73;113461;1193;97650;-69
2021/11/02 01:13:05;;;;;;;55.00;31.00;;;;;;;6.30;61.12;97904.22;113630;1192;106290;-68
2021/11/02 01:15:33;;;;;;;56.30;31.60;;;;;;;6.19;60.93;97905.41;113432;1194;97655;-68
2021/11/02 01:18:06;;;;;;;53.40;30.90;;;;;;;6.04;61.01;97908.54;113297;1193;97553;-69
2021/11/02 01:20:35;;;;;;;53.90;30.80;;;;;;;5.85;60.79;97903.59;113531;1192;111203;-68
2021/11/02 01:23:03;;;;;;;55.00;30.80;;;;;;;5.68;60.89;97902.33;113521;1192;96103;-68
2021/11/02 01:25:36;;;;;;;54.30;31.00;;;;;;;5.53;60.87;97906.13;113657;1193;108075;-69
2021/11/02 01:28:08;;;;;;;57.80;32.50;;;;;;;5.42;60.85;97904.30;113729;1193;97694;-68
2021/11/02 01:30:41;;;;;;;58.70;34.20;;;;;;;5.36;60.96;97898.55;113775;1192;97528;-68
2021/11/02 01:33:09;;;;;;;56.20;33.50;;;;;;;5.22;60.65;97898.63;113726;1192;110542;-69
2021/11/02 01:35:37;;;;;;;58.10;32.60;;;;;;;5.12;60.81;97894.45;113780;1193;96105;-68
2021/11/02 01:38:09;;;;;;;57.20;33.60;;;;;;;5.08;60.90;97888.92;113643;1193;108100;-68
2021/11/02 01:40:38;;;;;;;60.10;34.00;;;;;;;5.05;61.01;97890.70;113382;1193;98382;-68
2021/11/02 01:43:07;;;;;;;59.10;33.90;;;;;;;5.02;60.91;97887.58;113613;1192;97582;-69
2021/11/02 01:45:38;;;;;;;58.70;34.30;;;;;;;4.99;60.83;97881.81;113437;1193;111668;-68
2021/11/02 01:48:06;;;;;;;62.70;34.40;;;;;;;4.95;60.87;97879.78;113492;1194;97653;-69
2021/11/02 01:50:36;;;;;;;61.70;35.50;;;;;;;4.85;60.71;97873.42;113404;1193;106534;-71
2021/11/02 01:53:04;;;;;;;61.30;33.50;;;;;;;4.81;60.76;97871.27;113655;1196;97647;-72
2021/11/02 01:55:32;;;;;;;66.40;36.60;;;;;;;4.71;60.69;97871.55;113674;1192;97815;-69
2021/11/02 01:58:00;;;;;;;61.10;34.00;;;;;;;4.65;60.79;97870.92;113334;1193;111172;-69
2021/11/02 02:00:34;;;;;;;59.30;33.70;;;;;;;4.61;60.65;97867.13;113571;1192;97522;-69
2021/11/02 02:03:13;;;;;;;58.90;34.50;;;;;;;4.59;60.70;97867.96;113639;1192;107501;-69
2021/11/02 02:06:06;;;;;;;55.30;33.80;;;;;;;4.52;60.92;97863.87;113563;1192;96862;-69
2021/11/02 02:08:43;;;;;;;59.70;34.80;;;;;;;4.48;60.69;97862.20;113488;1192;97642;-69
2021/11/02 02:11:42;;;;;;;61.40;34.10;;;;;;;4.43;60.87;97854.16;113492;1195;109988;-69
2021/11/02 02:14:12;;;;;;;58.50;32.60;;;;;;;4.38;60.80;97854.12;113411;1193;97723;-67
2021/11/02 02:16:51;;;;;;;55.10;30.70;;;;;;;4.33;60.49;97853.69;113496;1193;109140;-70
2021/11/02 02:19:30;;;;;;;61.00;33.20;;;;;;;4.30;60.64;97853.56;113277;1179;97571;-68
2021/11/02 02:22:15;;;;;;;58.70;34.70;;;;;;;4.24;60.77;97856.19;113340;1193;97562;-68
2021/11/02 02:25:14;;;;;;;60.90;33.50;;;;;;;4.19;60.76;97857.25;113341;1193;111788;-69
2021/11/02 02:28:07;;;;;;;62.30;34.00;;;;;;;4.14;60.65;97859.00;113363;1193;97603;-69
2021/11/02 02:30:44;;;;;;;67.70;35.60;;;;;;;4.07;60.68;97864.86;113382;1193;107960;-70
2021/11/02 02:33:17;;;;;;;73.00;37.60;;;;;;;3.98;60.42;97863.34;113410;1195;97666;-67
2021/11/02 02:35:46;;;;;;;60.80;35.10;;;;;;;3.85;60.55;97860.71;113364;1193;96764;-68
2021/11/02 02:38:20;;;;;;;68.30;37.20;;;;;;;3.74;60.24;97857.17;113350;1193;111814;-69
2021/11/02 02:40:50;;;;;;;;;;;;;;;3.68;60.49;97860.72;113441;1193;97609;-68
2021/11/02 02:43:22;;;;;;;61.90;35.30;;;;;;;3.61;60.35;97857.84;113443;1192;110394;-69
2021/11/02 02:45:54;;;;;;;62.70;36.20;;;;;;;3.64;60.55;97858.90;113606;1192;98875;-69
2021/11/02 02:48:27;;;;;;;;;;;;;;;3.67;60.59;97856.91;113639;1192;96395;-69
2021/11/02 02:50:57;;;;;;;64.80;35.50;;;;;;;3.67;60.59;97855.36;113375;1193;112879;-69
2021/11/02 02:53:26;;;;;;;62.30;36.50;;;;;;;3.67;60.62;97853.72;113673;1193;98924;-69
2021/11/02 02:56:00;;;;;;;61.90;36.00;;;;;;;3.66;60.63;97846.44;113456;1193;108577;-70
2021/11/02 02:58:37;;;;;;;60.00;35.00;;;;;;;3.66;60.70;97844.58;113305;1193;98278;-69
2021/11/02 03:01:08;;;;;;;65.00;35.60;;;;;;;3.66;60.60;97845.91;113367;1193;99004;-69
2021/11/02 03:03:49;;;;;;;70.10;37.60;;;;;;;3.66;60.77;97848.42;113282;1193;113333;-68
2021/11/02 03:06:25;;;;;;;66.90;36.90;;;;;;;3.66;60.66;97841.56;113295;1193;97814;-69
2021/11/02 03:08:57;;;;;;;60.20;34.80;;;;;;;3.68;60.70;97840.17;113280;1193;107849;-69
2021/11/02 03:11:34;;;;;;;58.00;32.90;;;;;;;3.71;60.51;97839.63;113381;1193;99005;-70
2021/11/02 03:14:08;;;;;;;61.30;34.60;;;;;;;3.72;60.67;97839.03;113259;1193;98904;-69
2021/11/02 03:17:00;;;;;;;63.60;35.60;;;;;;;3.73;60.82;97836.19;113549;1192;113098;-69
2021/11/02 03:48:15;;;;;;;52.40;30.40;;;;;;;4.03;61.08;97801.30;113246;1193;99111;-68
2021/11/02 05:09:33;;;;;;;49.20;28.80;;;;;;;4.96;61.81;97789.92;113713;1192;113515;-70
2021/11/02 05:49:07;;;;;;;48.70;28.90;;;;;;;5.41;62.01;97778.70;113445;1193;97467;-71
2021/11/02 05:59:47;;;;;;;;;;;;;;;5.52;62.08;97777.34;113596;1193;98949;-69
2021/11/02 06:30:32;;;;;;;65.70;33.80;;;;;;;5.95;62.33;97781.41;113620;1193;98905;-71
2021/11/02 06:33:07;;;;;;;58.20;31.40;;;;;;;6.00;62.39;97783.91;113796;1192;112736;-71
2021/11/02 07:18:19;;;;;;;56.10;33.80;;;;;;;7.25;62.91;97767.33;113476;1192;98908;-69
2021/11/02 07:20:50;;;;;;;53.30;30.50;;;;;;;7.39;62.95;97763.91;113374;1193;107486;-69
2021/11/02 07:23:37;;;;;;;50.40;29.50;;;;;;;7.52;62.94;97751.98;113324;1192;98897;-68
2021/11/02 08:46:24;;;;;;;47.30;29.40;;;;;;;9.63;62.69;97681.65;113575;1193;107966;-69
2021/11/02 08:49:01;;;;;;;48.40;27.90;;;;;;;9.76;62.72;97681.08;113414;1193;99062;-69
2021/11/02 08:51:31;;;;;;;49.90;27.80;;;;;;;9.86;62.66;97679.59;113657;1193;99039;-70
2021/11/02 08:53:59;;;;;;;49.20;28.00;;;;;;;9.98;62.61;97679.78;113496;1193;113174;-68
2021/11/02 08:56:30;;;;;;;51.40;28.70;;;;;;;10.15;62.70;97676.98;113461;1193;98942;-70
2021/11/02 08:58:58;;;;;;;46.10;28.70;;;;;;;10.34;62.73;97675.88;113661;1192;106616;-68
2021/11/02 09:01:57;;;;;;;46.60;29.30;;;;;;;10.61;62.64;97670.77;113795;1193;99620;-70
2021/11/02 09:04:33;;;;;;;50.90;30.10;;;;;;;10.93;62.63;97667.92;113776;1193;99034;-68
2021/11/02 09:07:04;;;;;;;47.40;27.60;;;;;;;11.56;62.61;97664.10;113307;1194;112534;-70
2021/11/02 09:09:36;;;;;;;50.10;28.80;;;;;;;12.31;62.74;97658.20;113688;1192;99345;-70
2021/11/02 09:12:07;;;;;;;46.00;27.90;;;;;;;13.01;62.69;97660.43;113550;1193;107584;-71
2021/11/02 09:14:41;;;;;;;48.10;29.90;;;;;;;13.85;62.66;97655.48;113216;1192;97555;-73
2021/11/02 09:17:14;;;;;;;46.80;28.50;;;;;;;14.52;62.48;97651.45;114277;1193;99001;-71
2021/11/02 09:19:42;;;;;;;42.10;26.60;;;;;;;15.06;62.32;97646.50;114221;1192;112133;-72
2021/11/02 09:22:13;;;;;;;51.80;32.40;;;;;;;15.26;61.63;97645.09;113584;1192;99007;-71
2021/11/02 09:24:45;;;;;;;45.50;28.20;;;;;;;15.41;61.68;97644.87;113539;1193;107486;-72
2021/11/02 09:27:14;;;;;;;50.00;27.30;;;;;;;15.56;61.85;97639.54;113482;1192;97147;-72
2021/11/02 09:29:45;;;;;;;42.00;26.40;;;;;;;15.75;61.74;97641.80;113506;1192;99346;-72
2021/11/02 09:32:14;;;;;;;46.00;26.80;;;;;;;15.75;61.28;97641.36;113310;1192;112544;-73
2021/11/02 09:34:43;;;;;;;43.10;27.50;;;;;;;15.84;61.54;97640.24;113608;1193;97832;-73
2021/11/02 09:37:20;;;;;;;44.10;26.60;;;;;;;15.99;61.58;97641.20;113380;1192;107335;-73
2021/11/02 09:39:53;;;;;;;41.10;25.80;;;;;;;16.18;61.52;97637.56;113312;1193;97277;-74
2021/11/02 09:43:01;;;;;;;42.10;26.40;;;;;;;16.39;61.50;97642.15;113203;1193;97087;-76
2021/11/02 09:46:01;;;;;;;38.10;23.90;;;;;;;16.54;61.08;97642.22;112681;1196;112642;-73
2021/11/02 09:48:51;;;;;;;40.10;23.90;;;;;;;16.56;60.97;97638.79;113102;1195;99177;-73
2021/11/02 09:51:48;;;;;;;38.60;21.90;;;;;;;16.43;60.31;97644.59;113061;1187;107619;-74
2021/11/02 09:54:50;;;;;;;37.00;21.70;;;;;;;16.41;60.59;97644.52;112972;1195;97286;-73
2021/11/02 09:57:39;;;;;;;36.20;21.20;;;;;;;16.38;60.46;97643.00;113212;1195;99788;-73
2021/11/02 10:00:20;;;;;;;36.00;21.00;;;;;;;16.37;60.42;97644.34;113063;1195;112933;-72
2021/11/02 10:03:19;;;;;;;32.90;18.60;;;;;;;16.34;60.13;97648.80;113128;1196;99100;-72
2021/11/02 10:06:36;;;;;;;26.90;13.60;;;;;;;16.25;60.11;97644.54;113388;1196;107528;-73
2021/11/02 10:09:18;;;;;;;28.10;12.10;;;;;;;15.94;58.93;97643.17;113203;1196;99257;-73
2021/11/02 10:12:08;;;;;;;22.70;11.70;;;;;;;15.62;58.76;97641.54;112915;1195;99142;-74
2021/11/02 10:14:54;;;;;;;26.50;13.00;;;;;;;15.52;58.36;97642.44;113264;1194;112492;-72
2021/11/02 10:17:46;;;;;;;24.70;13.10;;;;;;;15.35;55.41;97645.14;113481;1195;98925;-72
2021/11/02 10:20:36;;;;;;;25.30;13.50;;;;;;;14.98;54.32;97646.98;113699;1193;107543;-72
2021/11/02 10:23:16;;;;;;;24.60;13.50;;;;;;;14.82;53.99;97647.89;113703;1192;97502;-73
2021/11/02 10:26:10;;;;;;;23.70;12.80;;;;;;;14.76;54.27;97644.30;113706;1192;98004;-74
2021/11/02 10:29:17;;;;;;;25.40;12.50;;;;;;;14.68;54.61;97650.16;113423;1192;112541;-71
2021/11/02 10:32:00;;;;;;;25.30;12.90;;;;;;;14.63;54.67;97643.05;113648;1193;99073;-74
2021/11/02 10:35:00;;;;;;;24.90;13.40;;;;;;;14.56;54.36;97642.70;113688;1192;107497;-71
2021/11/02 10:38:06;;;;;;;23.20;11.40;;;;;;;14.53;53.97;97640.04;113383;1193;97358;-71
2021/11/02 10:40:39;;;;;;;24.20;12.90;;;;;;;14.37;52.28;97641.33;113682;1192;97560;-71
2021/11/02 10:43:33;;;;;;;27.00;12.80;;;;;;;14.17;52.77;97640.92;113460;1192;112556;-70
2021/11/02 10:46:09;;;;;;;41.10;20.00;;;;;;;14.18;53.45;97639.42;113630;1192;99001;-71
2021/11/02 10:48:44;;;;;;;;;;;;;;;14.19;53.51;97635.58;113491;1192;107484;-71
2021/11/02 10:51:24;;;;;;;;;;;;;;;14.19;53.56;97630.67;113617;1192;96392;-71
2021/11/02 10:54:16;;;;;;;41.80;23.90;;;;;;;14.16;53.77;97629.91;113610;1192;98932;-71
2021/11/02 10:56:47;;;;;;;41.00;24.80;;;;;;;14.10;53.32;97627.64;113231;1192;113105;-70
2021/11/02 10:59:21;;;;;;;41.20;24.50;;;;;;;13.97;53.36;97626.09;113348;1193;98903;-71
2021/11/02 11:01:51;;;;;;;44.20;25.20;;;;;;;13.89;53.37;97620.03;113423;1193;105647;-71
2021/11/02 11:04:23;;;;;;;41.70;24.60;;;;;;;13.82;53.40;97621.05;113329;1193;98977;-69
2021/11/02 11:06:58;;;;;;;44.70;25.40;;;;;;;13.78;53.35;97627.06;113358;1193;97625;-70
2021/11/02 11:09:30;;;;;;;41.10;24.40;;;;;;;13.71;53.17;97625.83;113331;1193;112536;-70
2021/11/02 11:12:04;;;;;;;43.80;26.50;;;;;;;13.61;53.15;97628.91;113547;1192;97190;-69
2021/11/02 11:14:33;;;;;;;45.70;26.10;;;;;;;13.53;53.09;97631.64;113416;1193;107479;-71
2021/11/02 11:17:04;;;;;;;42.60;25.40;;;;;;;13.46;53.10;97624.42;113422;1192;98904;-69
2021/11/02 11:19:42;;;;;;;41.90;25.70;;;;;;;13.39;53.07;97629.48;113446;1193;97014;-69
2021/11/02 11:22:16;;;;;;;40.40;24.70;;;;;;;13.32;53.13;97631.92;113551;1192;112530;-71
2021/11/02 11:25:08;;;;;;;44.70;26.60;;;;;;;13.23;52.97;97630.06;113482;1192;99036;-71
2021/11/02 11:27:47;;;;;;;42.20;26.50;;;;;;;13.11;52.91;97637.85;113689;1192;107585;-71
2021/11/02 11:30:16;;;;;;;46.80;26.40;;;;;;;13.04;52.92;97641.67;113291;1193;97509;-72
2021/11/02 11:32:46;;;;;;;45.20;25.80;;;;;;;13.00;52.84;97640.83;115100;1192;97183;-73
2021/11/02 11:35:15;;;;;;;44.30;27.00;;;;;;;12.96;52.83;97639.41;115152;1192;112470;-71
2021/11/02 11:37:45;;;;;;;44.30;27.70;;;;;;;12.90;52.76;97640.59;115074;1192;97272;-73
2021/11/02 11:40:22;;;;;;;48.00;30.50;;;;;;;12.78;52.72;97640.25;114628;1193;108425;-73
2021/11/02 11:42:56;;;;;;;48.90;29.60;;;;;;;12.62;52.55;97633.20;113343;1193;98896;-74
2021/11/02 11:45:28;;;;;;;55.30;32.00;;;;;;;12.44;52.59;97632.90;113342;1194;98962;-73
2021/11/02 11:48:07;;;;;;;51.40;29.60;;;;;;;12.23;52.41;97627.55;113380;1192;112311;-72
2021/11/02 11:50:40;;;;;;;48.60;30.80;;;;;;;12.05;52.54;97629.73;113391;1192;97968;-71
2021/11/02 11:53:09;;;;;;;43.20;28.70;;;;;;;11.90;52.45;97631.04;113370;1192;105908;-71
2021/11/02 11:55:44;;;;;;;45.80;27.20;;;;;;;11.78;52.50;97636.58;113331;1193;97489;-74
2021/11/02 11:58:16;;;;;;;47.50;29.50;;;;;;;11.68;52.47;97636.98;113354;1194;98982;-72
2021/11/02 12:01:16;;;;;;;61.30;37.10;;;;;;;11.58;52.43;97638.48;113400;1192;112644;-73
2021/11/02 12:03:56;;;;;;;51.50;33.50;;;;;;;11.44;52.41;97637.52;113104;1193;98953;-71
2021/11/02 12:06:50;;;;;;;55.30;32.60;;;;;;;11.30;52.41;97639.45;113343;1192;107460;-71
2021/11/02 12:09:22;;;;;;;54.80;32.00;;;;;;;11.15;52.39;97641.24;113451;1193;98995;-74
2021/11/02 12:11:50;;;;;;;54.20;33.70;;;;;;;11.03;52.31;97640.17;113417;1192;98904;-72
2021/11/02 12:14:21;;;;;;;56.70;33.70;;;;;;;10.92;52.42;97640.88;113412;1193;112648;-72
2021/11/02 12:16:57;;;;;;;55.30;35.30;;;;;;;10.85;52.49;97643.23;113443;1193;98973;-71
2021/11/02 12:19:38;;;;;;;56.80;34.70;;;;;;;10.78;52.42;97648.06;113389;1193;108509;-72
2021/11/02 12:22:12;;;;;;;60.80;37.20;;;;;;;10.68;52.48;97650.23;113367;1193;98987;-73
2021/11/02 12:24:42;;;;;;;56.00;34.80;;;;;;;10.60;52.40;97649.52;113633;1193;96379;-74
2021/11/02 12:27:14;;;;;;;62.30;37.90;;;;;;;10.53;52.55;97653.29;113459;1192;112568;-74
2021/11/02 12:29:51;;;;;;;65.70;42.10;;;;;;;10.49;52.55;97655.27;113389;1192;98872;-73
2021/11/02 12:32:23;;;;;;;64.00;38.80;;;;;;;10.47;52.78;97656.69;113558;1192;107598;-72
2021/11/02 12:35:07;;;;;;;61.90;36.50;;;;;;;10.47;52.82;97664.14;113517;1192;99080;-74
2021/11/02 12:37:50;;;;;;;57.80;34.50;;;;;;;10.43;52.76;97672.45;113325;1193;97495;-72
2021/11/02 12:40:28;;;;;;;57.60;34.40;;;;;;;10.39;52.66;97674.20;113356;1193;112487;-73
2021/11/02 12:43:28;;;;;;;62.70;35.70;;;;;;;10.32;52.70;97673.27;113361;1192;97620;-74
2021/11/02 12:46:02;;;;;;;58.10;35.70;;;;;;;10.27;52.82;97673.17;113935;1193;107641;-73
2021/11/02 12:48:34;;;;;;;60.00;37.10;;;;;;;10.25;52.83;97672.87;113708;1192;98908;-74
2021/11/02 12:51:21;;;;;;;62.20;36.50;;;;;;;10.16;52.88;97672.48;113446;1192;99024;-74
2021/11/02 12:53:56;;;;;;;60.20;36.70;;;;;;;10.14;52.93;97675.64;113393;1192;112493;-71
2021/11/02 12:56:33;;;;;;;64.80;38.10;;;;;;;10.13;52.93;97674.34;113476;1192;98909;-73
2021/11/02 12:59:11;;;;;;;;;;;;;;;10.13;53.18;97681.08;113294;1193;107396;-76
2021/11/02 13:01:42;;;;;;;76.90;45.00;;;;;;;10.11;53.30;97682.46;113453;1193;97058;-74
2021/11/02 13:04:12;;;;;;;62.10;36.60;;;;;;;10.12;53.16;97678.61;113411;1193;99603;-75
2021/11/02 13:06:45;;;;;;;67.00;39.90;;;;;;;10.13;53.27;97684.58;113644;1192;112096;-74
2021/11/02 13:09:34;;;;;;;64.30;38.00;;;;;;;10.13;53.34;97685.46;113730;1193;99001;-74
2021/11/02 13:12:07;;;;;;;61.40;37.50;;;;;;;10.12;53.38;97691.73;113688;1193;107395;-74
2021/11/02 13:14:51;;;;;;;66.90;39.80;;;;;;;10.12;53.40;97692.33;113661;1192;99044;-72
2021/11/02 13:17:26;;;;;;;69.00;40.40;;;;;;;10.11;53.64;97689.69;113432;1193;97070;-74
2021/11/02 13:19:56;;;;;;;68.70;38.00;;;;;;;10.11;53.61;97689.18;113502;1192;113032;-73
2021/11/02 13:22:28;;;;;;;70.60;40.60;;;;;;;10.08;53.57;97685.94;113230;1192;99372;-72
2021/11/02 13:25:07;;;;;;;73.60;41.10;;;;;;;10.06;53.57;97688.55;115007;1192;106643;-73
2021/11/02 13:27:40;;;;;;;72.70;40.60;;;;;;;10.05;53.71;97688.46;115290;1192;97165;-73
2021/11/02 13:30:33;;;;;;;75.60;43.20;;;;;;;10.05;53.72;97692.77;114743;1192;98875;-74
2021/11/02 13:33:18;;;;;;;77.70;45.20;;;;;;;10.05;53.80;97691.91;113587;1192;112527;-73
2021/11/02 13:35:56;;;;;;;78.00;46.00;;;;;;;9.98;53.82;97688.05;113481;1192;98940;-74
2021/11/02 13:38:31;;;;;;;78.20;45.20;;;;;;;9.97;53.89;97688.58;113527;1193;107349;-76
2021/11/02 13:41:09;;;;;;;75.80;44.00;;;;;;;9.94;53.87;97685.10;113283;1193;99032;-75
2021/11/02 13:43:42;;;;;;;76.10;44.30;;;;;;;9.90;53.97;97685.07;113497;1192;98933;-75
2021/11/02 13:46:12;;;;;;;73.60;43.90;;;;;;;9.87;54.04;97686.11;113572;1193;112435;-75
2021/11/02 13:48:42;;;;;;;78.40;43.20;;;;;;;9.82;53.94;97694.17;113697;1193;99716;-75
2021/11/02 13:51:13;;;;;;;78.10;47.30;;;;;;;9.76;54.09;97692.92;113414;1192;108706;-73
2021/11/02 13:53:42;;;;;;;76.10;45.00;;;;;;;9.73;54.19;97686.15;113633;1192;98991;-73
2021/11/02 13:56:12;;;;;;;76.70;43.60;;;;;;;9.71;54.24;97676.20;114175;1191;96982;-74
2021/11/02 13:58:43;;;;;;;71.50;42.90;;;;;;;9.68;54.17;97674.67;113483;1192;112512;-73
2021/11/02 14:01:20;;;;;;;72.60;41.30;;;;;;;9.66;54.22;97677.32;113533;1192;96379;-74
2021/11/02 14:04:13;;;;;;;71.40;43.50;;;;;;;9.63;54.21;97681.31;113456;1192;107105;-72
2021/11/02 14:06:48;;;;;;;75.40;41.70;;;;;;;9.60;54.44;97684.63;113466;1192;99036;-73
2021/11/02 14:09:32;;;;;;;85.40;48.40;;;;;;;9.57;54.41;97686.71;113539;1192;98919;-74
2021/11/02 14:12:00;;;;;;;;;;;;;;;9.46;54.40;97686.95;113324;1193;112407;-73
2021/11/02 14:14:32;;;;;;;83.90;47.70;;;;;;;9.34;54.59;97687.47;113337;1192;98893;-72
2021/11/02 14:17:21;;;;;;;87.40;47.40;;;;;;;9.30;54.47;97681.61;113420;1192;107512;-72
2021/11/02 14:19:55;;;;;;;80.70;46.90;;;;;;;9.27;54.62;97682.10;114725;1192;98919;-69
2021/11/02 14:22:49;;;;;;;77.90;44.90;;;;;;;9.27;54.75;97676.09;113629;1192;99065;-72
2021/11/02 14:25:19;;;;;;;82.30;47.10;;;;;;;9.24;54.72;97670.70;113650;1192;113337;-73
2021/11/02 14:27:51;;;;;;;82.50;48.10;;;;;;;9.20;54.86;97667.45;113606;1192;98995;-73
2021/11/02 14:30:31;;;;;;;83.00;47.60;;;;;;;9.18;54.86;97660.44;113505;1192;107585;-72
2021/11/02 14:33:43;;;;;;;82.90;48.40;;;;;;;9.18;54.99;97654.77;113481;1192;98903;-72
2021/11/02 14:36:11;;;;;;;80.40;47.10;;;;;;;9.12;54.77;97645.02;113574;1193;99091;-72
2021/11/02 14:38:46;;;;;;;79.00;45.90;;;;;;;9.05;54.80;97644.73;113095;1193;111727;-72
2021/11/02 14:41:32;;;;;;;77.80;45.80;;;;;;;8.95;54.78;97643.58;113151;1194;99005;-72
2021/11/02 14:44:15;;;;;;;75.10;44.40;;;;;;;8.85;55.02;97634.67;113353;1192;107622;-72
2021/11/02 14:46:51;;;;;;;79.70;47.70;;;;;;;8.83;55.19;97631.71;113570;1192;98998;-72
2021/11/02 14:49:29;;;;;;;83.30;47.50;;;;;;;8.79;55.22;97625.64;113574;1192;98992;-73
2021/11/02 14:52:06;;;;;;;78.60;46.30;;;;;;;8.77;55.15;97628.45;113569;1192;113046;-76
2021/11/02 14:54:43;;;;;;;85.50;49.40;;;;;;;8.72;55.21;97628.90;113344;1193;98971;-75
2021/11/02 14:57:20;;;;;;;85.30;47.70;;;;;;;8.67;55.36;97629.71;113569;1192;107482;-76
2021/11/02 15:00:01;;;;;;;86.50;48.40;;;;;;;8.66;55.33;97628.96;113708;1192;98973;-78
2021/11/02 15:02:33;;;;;;;83.90;46.40;;;;;;;8.67;55.63;97624.27;113690;1192;96296;-79
2021/11/02 15:05:05;;;;;;;82.90;49.60;;;;;;;8.68;55.48;97619.79;113655;1192;112515;-77
2021/11/02 15:07:42;;;;;;;87.30;50.40;;;;;;;8.66;55.42;97616.23;113306;1193;97049;-75
2021/11/02 15:10:14;;;;;;;86.50;50.50;;;;;;;8.63;55.56;97613.08;113762;1193;107571;-76
2021/11/02 15:12:50;;;;;;;83.20;48.10;;;;;;;8.56;55.59;97614.37;113702;1192;99011;-76
2021/11/02 15:15:18;;;;;;;81.90;49.60;;;;;;;8.48;55.73;97616.48;113884;1192;99630;-77
2021/11/02 15:17:52;;;;;;;81.70;49.90;;;;;;;8.41;55.85;97612.86;113588;1193;112258;-75
2021/11/02 15:20:26;;;;;;;89.50;51.20;;;;;;;8.35;55.82;97617.03;113454;1193;98979;-77
2021/11/02 15:22:59;;;;;;;88.10;51.20;;;;;;;8.36;55.98;97612.73;113781;1193;107549;-74
2021/11/02 15:25:27;;;;;;;85.90;51.20;;;;;;;8.35;56.00;97612.30;113670;1192;98987;-74
2021/11/02 15:28:02;;;;;;;85.60;49.90;;;;;;;8.32;56.08;97608.98;113319;1192;98941;-74
2021/11/02 15:30:30;;;;;;;84.20;49.30;;;;;;;8.31;56.05;97609.43;113562;1193;113764;-74
2021/11/02 15:32:59;;;;;;;86.30;50.40;;;;;;;8.32;56.20;97609.56;113317;1193;96487;-73
2021/11/02 15:35:27;;;;;;;80.30;47.50;;;;;;;8.33;56.27;97610.55;113637;1192;107449;-72
2021/11/02 15:38:01;;;;;;;81.60;50.30;;;;;;;8.32;56.09;97611.83;113502;1192;99110;-71
2021/11/02 15:40:41;;;;;;;96.40;57.30;;;;;;;8.21;56.10;97612.30;113603;1199;98933;-76
2021/11/02 15:43:12;;;;;;;90.70;52.30;;;;;;;8.18;56.53;97610.92;113790;1192;112675;-71
2021/11/02 15:45:47;;;;;;;80.60;47.30;;;;;;;8.19;56.50;97604.28;113814;1192;98991;-71
2021/11/02 15:48:22;;;;;;;80.00;47.80;;;;;;;8.16;56.68;97605.78;113500;1192;107486;-72
2021/11/02 15:50:54;;;;;;;82.30;48.50;;;;;;;8.12;56.62;97600.67;113722;1192;97354;-73
2021/11/02 15:53:29;;;;;;;76.00;44.50;;;;;;;8.10;56.56;97600.52;113721;1193;98415;-72
2021/11/02 15:56:02;;;;;;;77.00;44.40;;;;;;;8.12;56.69;97603.49;113612;1193;112652;-73
2021/11/02 15:58:33;;;;;;;77.80;46.10;;;;;;;8.16;56.81;97602.81;113599;1193;98931;-75
2021/11/02 16:01:03;;;;;;;75.20;42.90;;;;;;;8.19;57.08;97603.96;113545;1192;107605;-72
2021/11/02 16:03:39;;;;;;;74.90;42.20;;;;;;;8.21;56.98;97595.84;113798;1192;98345;-72
2021/11/02 16:06:10;;;;;;;75.10;41.50;;;;;;;8.23;56.86;97599.04;113656;1192;98973;-71
2021/11/02 16:08:39;;;;;;;72.30;42.20;;;;;;;8.17;56.84;97600.44;113602;1192;112499;-74
2021/11/02 16:11:11;;;;;;;77.50;44.10;;;;;;;8.11;56.83;97599.39;113534;1192;98923;-73
2021/11/02 16:13:39;;;;;;;70.80;42.10;;;;;;;8.09;57.09;97597.79;113601;1192;107513;-72
2021/11/02 16:16:09;;;;;;;74.70;45.70;;;;;;;8.12;57.21;97602.67;113508;1192;97403;-72
2021/11/02 16:18:42;;;;;;;79.70;44.40;;;;;;;8.14;57.26;97604.91;113644;1192;97098;-71
2021/11/02 16:21:10;;;;;;;84.00;45.50;;;;;;;8.17;57.26;97599.55;113740;1192;112201;-71
2021/11/02 16:23:45;;;;;;;81.70;47.70;;;;;;;8.19;57.52;97597.41;113492;1193;97496;-70
2021/11/02 16:26:24;;;;;;;79.20;45.10;;;;;;;8.20;57.50;97599.30;113494;1192;108577;-71
2021/11/02 16:29:12;;;;;;;80.80;46.00;;;;;;;8.20;57.59;97596.77;113591;1192;98894;-70
2021/11/02 16:31:46;;;;;;;76.90;45.60;;;;;;;8.23;57.76;97599.23;113231;1193;98972;-72
2021/11/02 16:34:22;;;;;;;69.20;41.30;;;;;;;8.23;57.50;97606.08;113459;1192;112509;-71
2021/11/02 16:36:55;;;;;;;87.70;46.30;;;;;;;8.17;57.64;97607.83;113661;1192;96338;-71
2021/11/02 16:39:24;;;;;;;79.70;45.00;;;;;;;8.13;57.80;97606.61;113578;1193;107360;-71
2021/11/02 16:42:02;;;;;;;72.10;41.30;;;;;;;8.13;57.72;97603.58;113392;1193;98991;-70
2021/11/02 16:44:39;;;;;;;74.40;42.70;;;;;;;8.15;57.53;97606.42;113512;1192;98889;-72
2021/11/02 16:47:11;;;;;;;83.30;47.40;;;;;;;8.13;57.71;97611.75;113507;1192;112511;-70
2021/11/02 16:49:43;;;;;;;78.50;46.10;;;;;;;8.08;57.70;97616.17;113603;1192;98801;-70
2021/11/02 16:52:26;;;;;;;76.70;45.50;;;;;;;8.01;57.92;97621.88;113532;1192;106330;-71
2021/11/02 16:55:08;;;;;;;83.10;48.60;;;;;;;7.93;58.22;97623.81;113598;1192;98870;-71
2021/11/02 16:57:36;;;;;;;82.80;49.20;;;;;;;7.93;58.19;97623.31;113609;1192;98881;-71